sensor_id;sensor_type;location;lat;lon;timestamp;P1;durP1;ratioP1;P2;durP2;ratioP2
75984;SDS011;65033;44.660;37.758;2023-03-20T00:00:08;45.05;;;22.35;;
75984;SDS011;65033;44.660;37.758;2023-03-20T00:01:19;49.03;;;21.90;;
75984;SDS011;65033;44.660;37.758;2023-03-20T00:02:26;48.97;;;23.65;;
75984;SDS011;65033;44.660;37.758;2023-03-20T00:04:32;54.88;;;20.88;;
75984;SDS011;65033;44.660;37.758;2023-03-20T00:05:37;42.65;;;22.52;;
75984;SDS011;65033;44.660;37.758;2023-03-20T00:06:40;42.92;;;22.83;;
75984;SDS011;65033;44.660;37.758;2023-03-20T00:07:43;50.17;;;20.60;;
75984;SDS011;65033;44.660;37.758;2023-03-20T00:08:48;50.28;;;22.25;;
75984;SDS011;65033;44.660;37.758;2023-03-20T00:09:53;57.58;;;24.42;;
75984;SDS011;65033;44.660;37.758;2023-03-20T00:10:58;56.03;;;23.55;;
75984;SDS011;65033;44.660;37.758;2023-03-20T00:12:02;43.20;;;21.92;;
75984;SDS011;65033;44.660;37.758;2023-03-20T00:13:07;58.03;;;22.45;;
75984;SDS011;65033;44.660;37.758;2023-03-20T00:14:16;54.03;;;23.70;;
75984;SDS011;65033;44.660;37.758;2023-03-20T00:15:25;42.90;;;23.02;;
75984;SDS011;65033;44.660;37.758;2023-03-20T00:16:32;48.45;;;23.02;;
75984;SDS011;65033;44.660;37.758;2023-03-20T00:17:37;50.20;;;22.52;;
75984;SDS011;65033;44.660;37.758;2023-03-20T00:18:40;52.17;;;23.73;;
75984;SDS011;65033;44.660;37.758;2023-03-20T00:19:44;46.83;;;23.17;;
75984;SDS011;65033;44.660;37.758;2023-03-20T00:20:49;53.88;;;23.73;;
75984;SDS011;65033;44.660;37.758;2023-03-20T00:21:53;49.63;;;23.60;;
75984;SDS011;65033;44.660;37.758;2023-03-20T00:22:57;48.38;;;22.25;;
75984;SDS011;65033;44.660;37.758;2023-03-20T00:24:01;46.95;;;21.92;;
75984;SDS011;65033;44.660;37.758;2023-03-20T00:25:05;51.45;;;23.15;;
75984;SDS011;65033;44.660;37.758;2023-03-20T00:26:10;51.05;;;22.15;;
75984;SDS011;65033;44.660;37.758;2023-03-20T00:27:15;51.20;;;23.20;;
75984;SDS011;65033;44.660;37.758;2023-03-20T00:29:43;49.00;;;22.95;;
75984;SDS011;65033;44.660;37.758;2023-03-20T00:30:47;45.08;;;22.85;;
75984;SDS011;65033;44.660;37.758;2023-03-20T00:31:50;54.90;;;23.63;;
75984;SDS011;65033;44.660;37.758;2023-03-20T00:32:55;51.28;;;22.83;;
75984;SDS011;65033;44.660;37.758;2023-03-20T00:34:01;47.60;;;22.33;;
75984;SDS011;65033;44.660;37.758;2023-03-20T00:35:11;48.33;;;22.63;;
75984;SDS011;65033;44.660;37.758;2023-03-20T00:36:27;46.53;;;22.67;;
75984;SDS011;65033;44.660;37.758;2023-03-20T00:37:30;48.63;;;22.67;;
75984;SDS011;65033;44.660;37.758;2023-03-20T00:38:34;54.05;;;22.55;;
75984;SDS011;65033;44.660;37.758;2023-03-20T00:39:37;45.95;;;20.77;;
75984;SDS011;65033;44.660;37.758;2023-03-20T00:40:40;52.20;;;22.67;;
75984;SDS011;65033;44.660;37.758;2023-03-20T00:41:46;51.10;;;24.10;;
75984;SDS011;65033;44.660;37.758;2023-03-20T00:42:53;50.88;;;22.38;;
75984;SDS011;65033;44.660;37.758;2023-03-20T00:44:01;47.10;;;22.48;;
75984;SDS011;65033;44.660;37.758;2023-03-20T00:45:08;49.65;;;22.08;;
75984;SDS011;65033;44.660;37.758;2023-03-20T00:46:14;48.08;;;22.20;;
75984;SDS011;65033;44.660;37.758;2023-03-20T00:47:18;54.03;;;22.40;;
75984;SDS011;65033;44.660;37.758;2023-03-20T00:48:23;47.55;;;22.25;;
75984;SDS011;65033;44.660;37.758;2023-03-20T00:49:27;46.65;;;20.58;;
75984;SDS011;65033;44.660;37.758;2023-03-20T00:50:32;52.15;;;22.30;;
75984;SDS011;65033;44.660;37.758;2023-03-20T00:51:37;53.17;;;23.02;;
75984;SDS011;65033;44.660;37.758;2023-03-20T00:52:41;55.78;;;22.73;;
75984;SDS011;65033;44.660;37.758;2023-03-20T00:53:46;51.83;;;23.98;;
75984;SDS011;65033;44.660;37.758;2023-03-20T00:54:49;55.90;;;22.10;;
75984;SDS011;65033;44.660;37.758;2023-03-20T00:55:52;50.70;;;21.92;;
75984;SDS011;65033;44.660;37.758;2023-03-20T00:56:56;53.05;;;22.85;;
75984;SDS011;65033;44.660;37.758;2023-03-20T00:58:03;53.80;;;22.73;;
75984;SDS011;65033;44.660;37.758;2023-03-20T00:59:08;52.70;;;22.70;;
75984;SDS011;65033;44.660;37.758;2023-03-20T01:00:20;56.30;;;24.83;;
75984;SDS011;65033;44.660;37.758;2023-03-20T01:01:29;46.45;;;21.45;;
75984;SDS011;65033;44.660;37.758;2023-03-20T01:02:33;47.28;;;22.10;;
75984;SDS011;65033;44.660;37.758;2023-03-20T01:03:36;50.60;;;23.20;;
75984;SDS011;65033;44.660;37.758;2023-03-20T01:04:41;44.60;;;22.35;;
75984;SDS011;65033;44.660;37.758;2023-03-20T01:05:45;48.63;;;23.27;;
75984;SDS011;65033;44.660;37.758;2023-03-20T01:06:50;49.72;;;21.27;;
75984;SDS011;65033;44.660;37.758;2023-03-20T01:07:54;51.05;;;22.05;;
75984;SDS011;65033;44.660;37.758;2023-03-20T01:08:58;52.15;;;22.42;;
75984;SDS011;65033;44.660;37.758;2023-03-20T01:10:03;60.40;;;22.75;;
75984;SDS011;65033;44.660;37.758;2023-03-20T01:11:08;47.50;;;22.40;;
75984;SDS011;65033;44.660;37.758;2023-03-20T01:12:15;50.90;;;20.90;;
75984;SDS011;65033;44.660;37.758;2023-03-20T01:14:22;50.13;;;21.70;;
75984;SDS011;65033;44.660;37.758;2023-03-20T01:15:28;52.97;;;22.42;;
75984;SDS011;65033;44.660;37.758;2023-03-20T01:16:34;51.10;;;22.27;;
75984;SDS011;65033;44.660;37.758;2023-03-20T01:17:37;53.67;;;23.80;;
75984;SDS011;65033;44.660;37.758;2023-03-20T01:18:41;47.58;;;22.33;;
75984;SDS011;65033;44.660;37.758;2023-03-20T01:19:44;43.88;;;19.40;;
75984;SDS011;65033;44.660;37.758;2023-03-20T01:20:47;45.40;;;21.27;;
75984;SDS011;65033;44.660;37.758;2023-03-20T01:21:52;48.90;;;22.48;;
75984;SDS011;65033;44.660;37.758;2023-03-20T01:22:56;50.35;;;23.13;;
75984;SDS011;65033;44.660;37.758;2023-03-20T01:23:59;53.50;;;20.88;;
75984;SDS011;65033;44.660;37.758;2023-03-20T01:25:02;50.38;;;22.25;;
75984;SDS011;65033;44.660;37.758;2023-03-20T01:26:09;48.92;;;23.05;;
75984;SDS011;65033;44.660;37.758;2023-03-20T01:27:23;47.10;;;22.75;;
75984;SDS011;65033;44.660;37.758;2023-03-20T01:28:27;47.10;;;22.77;;
75984;SDS011;65033;44.660;37.758;2023-03-20T01:29:32;53.85;;;21.88;;
75984;SDS011;65033;44.660;37.758;2023-03-20T01:30:36;46.17;;;21.92;;
75984;SDS011;65033;44.660;37.758;2023-03-20T01:31:39;51.35;;;21.60;;
75984;SDS011;65033;44.660;37.758;2023-03-20T01:32:43;47.47;;;22.70;;
75984;SDS011;65033;44.660;37.758;2023-03-20T01:33:48;43.17;;;20.00;;
75984;SDS011;65033;44.660;37.758;2023-03-20T01:34:52;53.53;;;22.85;;
75984;SDS011;65033;44.660;37.758;2023-03-20T01:35:56;46.00;;;21.10;;
75984;SDS011;65033;44.660;37.758;2023-03-20T01:37:02;43.08;;;21.23;;
75984;SDS011;65033;44.660;37.758;2023-03-20T01:38:08;54.50;;;20.35;;
75984;SDS011;65033;44.660;37.758;2023-03-20T01:39:14;51.13;;;23.10;;
75984;SDS011;65033;44.660;37.758;2023-03-20T01:40:21;51.25;;;23.02;;
75984;SDS011;65033;44.660;37.758;2023-03-20T01:41:32;46.90;;;21.23;;
75984;SDS011;65033;44.660;37.758;2023-03-20T01:42:36;47.50;;;21.05;;
75984;SDS011;65033;44.660;37.758;2023-03-20T01:43:39;46.72;;;21.77;;
75984;SDS011;65033;44.660;37.758;2023-03-20T01:44:44;51.05;;;21.55;;
75984;SDS011;65033;44.660;37.758;2023-03-20T01:45:52;46.40;;;20.98;;
75984;SDS011;65033;44.660;37.758;2023-03-20T01:47:00;40.75;;;21.15;;
75984;SDS011;65033;44.660;37.758;2023-03-20T01:48:11;59.13;;;23.50;;
75984;SDS011;65033;44.660;37.758;2023-03-20T01:50:57;46.55;;;21.27;;
75984;SDS011;65033;44.660;37.758;2023-03-20T01:52:02;46.08;;;22.77;;
75984;SDS011;65033;44.660;37.758;2023-03-20T01:53:08;40.45;;;20.88;;
75984;SDS011;65033;44.660;37.758;2023-03-20T01:54:21;46.05;;;20.83;;
75984;SDS011;65033;44.660;37.758;2023-03-20T01:55:33;46.78;;;21.27;;
75984;SDS011;65033;44.660;37.758;2023-03-20T01:56:40;40.42;;;20.25;;
75984;SDS011;65033;44.660;37.758;2023-03-20T01:57:46;59.65;;;22.52;;
75984;SDS011;65033;44.660;37.758;2023-03-20T01:58:51;45.03;;;20.30;;
75984;SDS011;65033;44.660;37.758;2023-03-20T02:00:00;38.10;;;19.95;;
75984;SDS011;65033;44.660;37.758;2023-03-20T02:01:15;46.15;;;20.10;;
75984;SDS011;65033;44.660;37.758;2023-03-20T02:02:22;51.65;;;20.58;;
75984;SDS011;65033;44.660;37.758;2023-03-20T02:03:30;46.78;;;18.92;;
75984;SDS011;65033;44.660;37.758;2023-03-20T02:04:55;42.40;;;20.50;;
75984;SDS011;65033;44.660;37.758;2023-03-20T02:06:03;46.35;;;19.38;;
75984;SDS011;65033;44.660;37.758;2023-03-20T02:07:36;45.50;;;20.20;;
75984;SDS011;65033;44.660;37.758;2023-03-20T02:08:44;49.88;;;22.83;;
75984;SDS011;65033;44.660;37.758;2023-03-20T02:09:50;50.40;;;20.38;;
75984;SDS011;65033;44.660;37.758;2023-03-20T02:11:00;44.42;;;18.42;;
75984;SDS011;65033;44.660;37.758;2023-03-20T02:12:05;40.42;;;20.58;;
75984;SDS011;65033;44.660;37.758;2023-03-20T02:13:09;44.85;;;19.92;;
75984;SDS011;65033;44.660;37.758;2023-03-20T02:14:19;45.28;;;20.70;;
75984;SDS011;65033;44.660;37.758;2023-03-20T02:15:31;55.10;;;20.30;;
75984;SDS011;65033;44.660;37.758;2023-03-20T02:16:48;38.13;;;19.98;;
75984;SDS011;65033;44.660;37.758;2023-03-20T02:18:03;42.05;;;19.63;;
75984;SDS011;65033;44.660;37.758;2023-03-20T02:19:06;44.33;;;20.60;;
75984;SDS011;65033;44.660;37.758;2023-03-20T02:20:27;43.65;;;19.98;;
75984;SDS011;65033;44.660;37.758;2023-03-20T02:22:01;40.80;;;19.05;;
75984;SDS011;65033;44.660;37.758;2023-03-20T02:25:42;43.95;;;18.30;;
75984;SDS011;65033;44.660;37.758;2023-03-20T02:27:06;47.67;;;18.83;;
75984;SDS011;65033;44.660;37.758;2023-03-20T02:28:30;46.05;;;20.02;;
75984;SDS011;65033;44.660;37.758;2023-03-20T02:30:13;41.08;;;19.38;;
75984;SDS011;65033;44.660;37.758;2023-03-20T02:37:02;42.95;;;18.90;;
75984;SDS011;65033;44.660;37.758;2023-03-20T02:38:39;39.28;;;18.67;;
75984;SDS011;65033;44.660;37.758;2023-03-20T02:40:06;43.53;;;20.33;;
75984;SDS011;65033;44.660;37.758;2023-03-20T02:41:20;48.33;;;18.83;;
75984;SDS011;65033;44.660;37.758;2023-03-20T02:42:29;45.45;;;19.90;;
75984;SDS011;65033;44.660;37.758;2023-03-20T02:43:42;56.33;;;21.58;;
75984;SDS011;65033;44.660;37.758;2023-03-20T02:44:51;46.53;;;18.90;;
75984;SDS011;65033;44.660;37.758;2023-03-20T02:46:06;38.75;;;18.85;;
75984;SDS011;65033;44.660;37.758;2023-03-20T02:47:18;41.45;;;19.15;;
75984;SDS011;65033;44.660;37.758;2023-03-20T02:48:32;44.80;;;20.98;;
75984;SDS011;65033;44.660;37.758;2023-03-20T02:49:47;43.75;;;20.65;;
75984;SDS011;65033;44.660;37.758;2023-03-20T02:51:00;35.72;;;18.33;;
75984;SDS011;65033;44.660;37.758;2023-03-20T02:52:13;46.75;;;21.88;;
75984;SDS011;65033;44.660;37.758;2023-03-20T02:53:23;40.78;;;19.10;;
75984;SDS011;65033;44.660;37.758;2023-03-20T02:54:50;40.13;;;19.92;;
75984;SDS011;65033;44.660;37.758;2023-03-20T02:55:59;40.20;;;20.27;;
75984;SDS011;65033;44.660;37.758;2023-03-20T02:57:15;40.38;;;19.00;;
75984;SDS011;65033;44.660;37.758;2023-03-20T02:58:25;41.58;;;19.20;;
75984;SDS011;65033;44.660;37.758;2023-03-20T02:59:34;44.33;;;20.17;;
75984;SDS011;65033;44.660;37.758;2023-03-20T03:00:46;37.83;;;17.85;;
75984;SDS011;65033;44.660;37.758;2023-03-20T03:01:56;40.75;;;19.17;;
75984;SDS011;65033;44.660;37.758;2023-03-20T03:03:07;40.28;;;19.95;;
75984;SDS011;65033;44.660;37.758;2023-03-20T03:04:15;43.72;;;19.70;;
75984;SDS011;65033;44.660;37.758;2023-03-20T03:05:20;42.70;;;19.92;;
75984;SDS011;65033;44.660;37.758;2023-03-20T03:06:27;45.58;;;20.60;;
75984;SDS011;65033;44.660;37.758;2023-03-20T03:07:33;36.40;;;19.92;;
75984;SDS011;65033;44.660;37.758;2023-03-20T03:08:41;41.13;;;18.80;;
75984;SDS011;65033;44.660;37.758;2023-03-20T03:09:50;41.42;;;18.52;;
75984;SDS011;65033;44.660;37.758;2023-03-20T03:10:59;37.55;;;19.30;;
75984;SDS011;65033;44.660;37.758;2023-03-20T03:12:07;36.92;;;18.95;;
75984;SDS011;65033;44.660;37.758;2023-03-20T03:13:14;41.22;;;19.58;;
75984;SDS011;65033;44.660;37.758;2023-03-20T03:14:27;37.38;;;17.92;;
75984;SDS011;65033;44.660;37.758;2023-03-20T03:15:37;37.92;;;17.45;;
75984;SDS011;65033;44.660;37.758;2023-03-20T03:16:44;34.55;;;17.42;;
75984;SDS011;65033;44.660;37.758;2023-03-20T03:17:49;40.08;;;18.15;;
75984;SDS011;65033;44.660;37.758;2023-03-20T03:18:57;39.28;;;18.38;;
75984;SDS011;65033;44.660;37.758;2023-03-20T03:20:06;35.65;;;17.45;;
75984;SDS011;65033;44.660;37.758;2023-03-20T03:21:19;35.80;;;18.08;;
75984;SDS011;65033;44.660;37.758;2023-03-20T03:22:23;37.25;;;17.80;;
75984;SDS011;65033;44.660;37.758;2023-03-20T03:23:28;33.80;;;17.88;;
75984;SDS011;65033;44.660;37.758;2023-03-20T03:24:35;38.22;;;18.80;;
75984;SDS011;65033;44.660;37.758;2023-03-20T03:25:47;39.92;;;18.48;;
75984;SDS011;65033;44.660;37.758;2023-03-20T03:26:53;37.58;;;18.30;;
75984;SDS011;65033;44.660;37.758;2023-03-20T03:28:00;35.30;;;18.30;;
75984;SDS011;65033;44.660;37.758;2023-03-20T03:29:08;32.78;;;17.73;;
75984;SDS011;65033;44.660;37.758;2023-03-20T03:30:17;36.42;;;19.00;;
75984;SDS011;65033;44.660;37.758;2023-03-20T03:31:29;18.85;;;10.55;;
75984;SDS011;65033;44.660;37.758;2023-03-20T03:32:34;18.60;;;11.68;;
75984;SDS011;65033;44.660;37.758;2023-03-20T03:33:43;36.63;;;17.67;;
75984;SDS011;65033;44.660;37.758;2023-03-20T03:34:49;40.97;;;17.98;;
75984;SDS011;65033;44.660;37.758;2023-03-20T03:35:54;38.40;;;19.27;;
75984;SDS011;65033;44.660;37.758;2023-03-20T03:37:09;35.88;;;17.48;;
75984;SDS011;65033;44.660;37.758;2023-03-20T03:38:22;39.17;;;16.92;;
75984;SDS011;65033;44.660;37.758;2023-03-20T03:39:37;27.92;;;17.25;;
75984;SDS011;65033;44.660;37.758;2023-03-20T03:40:48;34.78;;;16.88;;
75984;SDS011;65033;44.660;37.758;2023-03-20T03:42:01;39.95;;;17.38;;
75984;SDS011;65033;44.660;37.758;2023-03-20T03:43:09;37.47;;;17.88;;
75984;SDS011;65033;44.660;37.758;2023-03-20T03:44:19;36.83;;;17.58;;
75984;SDS011;65033;44.660;37.758;2023-03-20T03:45:28;41.40;;;16.50;;
75984;SDS011;65033;44.660;37.758;2023-03-20T03:46:37;38.15;;;17.38;;
75984;SDS011;65033;44.660;37.758;2023-03-20T03:47:46;31.95;;;17.58;;
75984;SDS011;65033;44.660;37.758;2023-03-20T03:48:54;35.17;;;17.42;;
75984;SDS011;65033;44.660;37.758;2023-03-20T03:50:01;37.20;;;17.65;;
75984;SDS011;65033;44.660;37.758;2023-03-20T03:51:07;29.45;;;17.30;;
75984;SDS011;65033;44.660;37.758;2023-03-20T03:52:27;35.13;;;17.80;;
75984;SDS011;65033;44.660;37.758;2023-03-20T03:53:33;40.22;;;17.33;;
75984;SDS011;65033;44.660;37.758;2023-03-20T03:54:44;31.67;;;17.60;;
75984;SDS011;65033;44.660;37.758;2023-03-20T03:56:02;35.28;;;17.60;;
75984;SDS011;65033;44.660;37.758;2023-03-20T03:57:10;32.50;;;15.85;;
75984;SDS011;65033;44.660;37.758;2023-03-20T03:58:18;32.28;;;17.77;;
75984;SDS011;65033;44.660;37.758;2023-03-20T03:59:26;31.23;;;16.42;;
75984;SDS011;65033;44.660;37.758;2023-03-20T04:00:35;29.23;;;16.50;;
75984;SDS011;65033;44.660;37.758;2023-03-20T04:01:42;31.13;;;17.35;;
75984;SDS011;65033;44.660;37.758;2023-03-20T04:02:51;36.10;;;16.13;;
75984;SDS011;65033;44.660;37.758;2023-03-20T04:04:14;33.50;;;16.90;;
75984;SDS011;65033;44.660;37.758;2023-03-20T04:06:22;26.20;;;14.98;;
75984;SDS011;65033;44.660;37.758;2023-03-20T04:07:30;36.00;;;17.45;;
75984;SDS011;65033;44.660;37.758;2023-03-20T04:08:34;31.15;;;16.52;;
75984;SDS011;65033;44.660;37.758;2023-03-20T04:09:37;29.50;;;16.65;;
75984;SDS011;65033;44.660;37.758;2023-03-20T04:10:42;29.90;;;15.98;;
75984;SDS011;65033;44.660;37.758;2023-03-20T04:11:45;29.33;;;16.40;;
75984;SDS011;65033;44.660;37.758;2023-03-20T04:12:51;32.78;;;16.25;;
75984;SDS011;65033;44.660;37.758;2023-03-20T04:13:54;26.58;;;17.10;;
75984;SDS011;65033;44.660;37.758;2023-03-20T04:14:58;34.03;;;15.93;;
75984;SDS011;65033;44.660;37.758;2023-03-20T04:16:04;33.13;;;16.25;;
75984;SDS011;65033;44.660;37.758;2023-03-20T04:17:09;21.30;;;13.55;;
75984;SDS011;65033;44.660;37.758;2023-03-20T04:18:15;150.05;;;118.82;;
75984;SDS011;65033;44.660;37.758;2023-03-20T04:19:21;29.10;;;15.80;;
75984;SDS011;65033;44.660;37.758;2023-03-20T04:20:24;29.58;;;15.38;;
75984;SDS011;65033;44.660;37.758;2023-03-20T04:21:27;31.77;;;15.45;;
75984;SDS011;65033;44.660;37.758;2023-03-20T04:22:30;26.20;;;15.18;;
75984;SDS011;65033;44.660;37.758;2023-03-20T04:23:41;33.05;;;14.98;;
75984;SDS011;65033;44.660;37.758;2023-03-20T04:24:44;34.35;;;15.88;;
75984;SDS011;65033;44.660;37.758;2023-03-20T04:25:49;30.42;;;14.77;;
75984;SDS011;65033;44.660;37.758;2023-03-20T04:26:53;29.45;;;13.40;;
75984;SDS011;65033;44.660;37.758;2023-03-20T04:27:56;28.65;;;14.77;;
75984;SDS011;65033;44.660;37.758;2023-03-20T04:29:15;25.73;;;14.80;;
75984;SDS011;65033;44.660;37.758;2023-03-20T04:30:29;25.42;;;15.00;;
75984;SDS011;65033;44.660;37.758;2023-03-20T04:31:48;30.10;;;16.02;;
75984;SDS011;65033;44.660;37.758;2023-03-20T04:33:11;29.02;;;14.98;;
75984;SDS011;65033;44.660;37.758;2023-03-20T04:34:33;29.27;;;14.70;;
75984;SDS011;65033;44.660;37.758;2023-03-20T04:36:00;29.90;;;14.95;;
75984;SDS011;65033;44.660;37.758;2023-03-20T04:37:03;23.95;;;14.25;;
75984;SDS011;65033;44.660;37.758;2023-03-20T04:38:32;28.13;;;15.10;;
75984;SDS011;65033;44.660;37.758;2023-03-20T04:39:36;31.15;;;14.27;;
75984;SDS011;65033;44.660;37.758;2023-03-20T04:40:40;26.77;;;14.13;;
75984;SDS011;65033;44.660;37.758;2023-03-20T04:41:44;29.23;;;15.20;;
75984;SDS011;65033;44.660;37.758;2023-03-20T04:42:48;32.70;;;16.50;;
75984;SDS011;65033;44.660;37.758;2023-03-20T04:43:52;32.72;;;16.65;;
75984;SDS011;65033;44.660;37.758;2023-03-20T04:44:56;28.35;;;15.00;;
75984;SDS011;65033;44.660;37.758;2023-03-20T04:45:59;41.63;;;15.48;;
75984;SDS011;65033;44.660;37.758;2023-03-20T04:47:03;24.05;;;15.05;;
75984;SDS011;65033;44.660;37.758;2023-03-20T04:48:08;25.15;;;14.65;;
75984;SDS011;65033;44.660;37.758;2023-03-20T04:49:12;32.55;;;15.18;;
75984;SDS011;65033;44.660;37.758;2023-03-20T04:50:16;36.72;;;16.10;;
75984;SDS011;65033;44.660;37.758;2023-03-20T04:51:19;27.70;;;15.23;;
75984;SDS011;65033;44.660;37.758;2023-03-20T04:52:33;26.33;;;14.38;;
75984;SDS011;65033;44.660;37.758;2023-03-20T04:53:36;32.83;;;15.60;;
75984;SDS011;65033;44.660;37.758;2023-03-20T04:54:40;29.15;;;14.20;;
75984;SDS011;65033;44.660;37.758;2023-03-20T04:55:43;30.60;;;13.82;;
75984;SDS011;65033;44.660;37.758;2023-03-20T04:56:49;31.10;;;15.55;;
75984;SDS011;65033;44.660;37.758;2023-03-20T04:57:54;22.13;;;14.90;;
75984;SDS011;65033;44.660;37.758;2023-03-20T04:58:59;17.70;;;13.75;;
75984;SDS011;65033;44.660;37.758;2023-03-20T05:00:03;20.95;;;13.32;;
75984;SDS011;65033;44.660;37.758;2023-03-20T05:01:08;26.40;;;13.32;;
75984;SDS011;65033;44.660;37.758;2023-03-20T05:02:14;27.27;;;13.98;;
75984;SDS011;65033;44.660;37.758;2023-03-20T05:03:19;23.75;;;12.98;;
75984;SDS011;65033;44.660;37.758;2023-03-20T05:04:25;24.48;;;13.95;;
75984;SDS011;65033;44.660;37.758;2023-03-20T05:05:29;27.25;;;13.27;;
75984;SDS011;65033;44.660;37.758;2023-03-20T05:06:32;27.40;;;13.80;;
75984;SDS011;65033;44.660;37.758;2023-03-20T05:07:36;25.02;;;13.57;;
75984;SDS011;65033;44.660;37.758;2023-03-20T05:08:44;27.17;;;14.43;;
75984;SDS011;65033;44.660;37.758;2023-03-20T05:09:47;24.75;;;14.27;;
75984;SDS011;65033;44.660;37.758;2023-03-20T05:10:51;22.17;;;14.35;;
75984;SDS011;65033;44.660;37.758;2023-03-20T05:12:28;24.33;;;12.18;;
75984;SDS011;65033;44.660;37.758;2023-03-20T05:14:01;26.42;;;13.38;;
75984;SDS011;65033;44.660;37.758;2023-03-20T05:15:12;23.25;;;13.25;;
75984;SDS011;65033;44.660;37.758;2023-03-20T05:16:16;22.60;;;13.13;;
75984;SDS011;65033;44.660;37.758;2023-03-20T05:17:42;23.38;;;12.93;;
75984;SDS011;65033;44.660;37.758;2023-03-20T05:19:13;25.10;;;12.43;;
75984;SDS011;65033;44.660;37.758;2023-03-20T05:20:22;28.70;;;14.32;;
75984;SDS011;65033;44.660;37.758;2023-03-20T05:21:38;21.40;;;13.57;;
75984;SDS011;65033;44.660;37.758;2023-03-20T05:22:51;27.40;;;13.25;;
75984;SDS011;65033;44.660;37.758;2023-03-20T05:24:13;29.95;;;17.73;;
75984;SDS011;65033;44.660;37.758;2023-03-20T05:25:22;23.83;;;13.82;;
75984;SDS011;65033;44.660;37.758;2023-03-20T05:26:54;30.33;;;13.52;;
75984;SDS011;65033;44.660;37.758;2023-03-20T05:28:20;21.85;;;13.00;;
75984;SDS011;65033;44.660;37.758;2023-03-20T05:29:32;24.58;;;13.38;;
75984;SDS011;65033;44.660;37.758;2023-03-20T05:31:10;31.92;;;13.15;;
75984;SDS011;65033;44.660;37.758;2023-03-20T05:32:37;22.92;;;13.32;;
75984;SDS011;65033;44.660;37.758;2023-03-20T05:33:56;25.05;;;14.07;;
75984;SDS011;65033;44.660;37.758;2023-03-20T05:35:10;20.25;;;13.48;;
75984;SDS011;65033;44.660;37.758;2023-03-20T05:36:23;23.63;;;13.13;;
75984;SDS011;65033;44.660;37.758;2023-03-20T05:37:50;24.73;;;13.05;;
75984;SDS011;65033;44.660;37.758;2023-03-20T05:39:16;20.63;;;13.20;;
75984;SDS011;65033;44.660;37.758;2023-03-20T05:40:55;20.15;;;11.98;;
75984;SDS011;65033;44.660;37.758;2023-03-20T05:42:09;23.30;;;13.13;;
75984;SDS011;65033;44.660;37.758;2023-03-20T05:43:34;21.08;;;12.68;;
75984;SDS011;65033;44.660;37.758;2023-03-20T05:44:54;19.83;;;11.40;;
75984;SDS011;65033;44.660;37.758;2023-03-20T05:46:20;19.83;;;12.35;;
75984;SDS011;65033;44.660;37.758;2023-03-20T05:47:50;20.08;;;11.52;;
75984;SDS011;65033;44.660;37.758;2023-03-20T05:48:56;20.67;;;11.65;;
75984;SDS011;65033;44.660;37.758;2023-03-20T05:50:16;23.48;;;12.70;;
75984;SDS011;65033;44.660;37.758;2023-03-20T05:51:38;20.02;;;12.05;;
75984;SDS011;65033;44.660;37.758;2023-03-20T05:52:49;19.48;;;11.07;;
75984;SDS011;65033;44.660;37.758;2023-03-20T05:54:00;21.20;;;12.15;;
75984;SDS011;65033;44.660;37.758;2023-03-20T05:55:38;20.10;;;16.10;;
75984;SDS011;65033;44.660;37.758;2023-03-20T05:57:01;22.23;;;12.25;;
75984;SDS011;65033;44.660;37.758;2023-03-20T05:58:24;20.05;;;10.23;;
75984;SDS011;65033;44.660;37.758;2023-03-20T05:59:49;14.32;;;10.23;;
75984;SDS011;65033;44.660;37.758;2023-03-20T06:01:12;20.17;;;10.15;;
75984;SDS011;65033;44.660;37.758;2023-03-20T06:02:42;16.92;;;10.60;;
75984;SDS011;65033;44.660;37.758;2023-03-20T06:04:08;17.02;;;10.75;;
75984;SDS011;65033;44.660;37.758;2023-03-20T06:05:31;21.80;;;10.43;;
75984;SDS011;65033;44.660;37.758;2023-03-20T06:06:35;18.35;;;9.88;;
75984;SDS011;65033;44.660;37.758;2023-03-20T06:07:40;15.27;;;9.75;;
75984;SDS011;65033;44.660;37.758;2023-03-20T06:08:47;15.13;;;9.18;;
75984;SDS011;65033;44.660;37.758;2023-03-20T06:09:50;18.17;;;9.27;;
75984;SDS011;65033;44.660;37.758;2023-03-20T06:10:54;19.35;;;9.48;;
75984;SDS011;65033;44.660;37.758;2023-03-20T06:11:57;15.52;;;9.15;;
75984;SDS011;65033;44.660;37.758;2023-03-20T06:13:01;17.80;;;8.70;;
75984;SDS011;65033;44.660;37.758;2023-03-20T06:14:05;15.35;;;9.45;;
75984;SDS011;65033;44.660;37.758;2023-03-20T06:15:14;22.33;;;9.00;;
75984;SDS011;65033;44.660;37.758;2023-03-20T06:16:23;16.23;;;10.88;;
75984;SDS011;65033;44.660;37.758;2023-03-20T06:17:28;13.82;;;8.60;;
75984;SDS011;65033;44.660;37.758;2023-03-20T06:18:36;19.17;;;9.00;;
75984;SDS011;65033;44.660;37.758;2023-03-20T06:19:42;19.33;;;9.73;;
75984;SDS011;65033;44.660;37.758;2023-03-20T06:20:45;13.60;;;9.35;;
75984;SDS011;65033;44.660;37.758;2023-03-20T06:21:53;17.20;;;8.35;;
75984;SDS011;65033;44.660;37.758;2023-03-20T06:22:57;11.88;;;8.05;;
75984;SDS011;65033;44.660;37.758;2023-03-20T06:24:02;15.88;;;7.97;;
75984;SDS011;65033;44.660;37.758;2023-03-20T06:25:07;18.98;;;10.27;;
75984;SDS011;65033;44.660;37.758;2023-03-20T06:27:31;18.25;;;9.02;;
75984;SDS011;65033;44.660;37.758;2023-03-20T06:28:34;11.45;;;8.77;;
75984;SDS011;65033;44.660;37.758;2023-03-20T06:29:41;11.93;;;8.02;;
75984;SDS011;65033;44.660;37.758;2023-03-20T06:30:51;15.57;;;8.57;;
75984;SDS011;65033;44.660;37.758;2023-03-20T06:31:56;17.48;;;8.95;;
75984;SDS011;65033;44.660;37.758;2023-03-20T06:33:05;24.77;;;10.52;;
75984;SDS011;65033;44.660;37.758;2023-03-20T06:34:25;15.15;;;8.30;;
75984;SDS011;65033;44.660;37.758;2023-03-20T06:35:30;16.08;;;9.38;;
75984;SDS011;65033;44.660;37.758;2023-03-20T06:36:35;14.57;;;8.27;;
75984;SDS011;65033;44.660;37.758;2023-03-20T06:38:54;10.80;;;7.38;;
75984;SDS011;65033;44.660;37.758;2023-03-20T06:39:59;15.05;;;7.82;;
75984;SDS011;65033;44.660;37.758;2023-03-20T06:41:11;16.15;;;8.60;;
75984;SDS011;65033;44.660;37.758;2023-03-20T06:42:22;12.15;;;8.25;;
75984;SDS011;65033;44.660;37.758;2023-03-20T06:43:26;29.95;;;23.30;;
75984;SDS011;65033;44.660;37.758;2023-03-20T06:44:29;14.20;;;10.90;;
75984;SDS011;65033;44.660;37.758;2023-03-20T06:45:42;32.00;;;8.63;;
75984;SDS011;65033;44.660;37.758;2023-03-20T06:46:58;13.70;;;7.20;;
75984;SDS011;65033;44.660;37.758;2023-03-20T06:48:11;9.00;;;6.85;;
75984;SDS011;65033;44.660;37.758;2023-03-20T06:49:14;12.07;;;7.63;;
75984;SDS011;65033;44.660;37.758;2023-03-20T06:50:19;55.33;;;8.88;;
75984;SDS011;65033;44.660;37.758;2023-03-20T06:51:25;14.30;;;7.65;;
75984;SDS011;65033;44.660;37.758;2023-03-20T06:52:29;9.50;;;5.95;;
75984;SDS011;65033;44.660;37.758;2023-03-20T06:54:01;15.65;;;7.47;;
75984;SDS011;65033;44.660;37.758;2023-03-20T06:55:05;15.70;;;7.55;;
75984;SDS011;65033;44.660;37.758;2023-03-20T06:56:09;10.20;;;7.75;;
75984;SDS011;65033;44.660;37.758;2023-03-20T06:57:14;10.68;;;5.72;;
75984;SDS011;65033;44.660;37.758;2023-03-20T06:58:19;15.80;;;7.88;;